Time;durP1;ratioP1;P1;durP2;ratioP2;P2;SDS_P1;SDS_P2;PMS_P1;PMS_P2;Temp;Humidity;BMP_temperature;BMP_pressure;BME280_temperature;BME280_humidity;BME280_pressure;Samples;Min_cycle;Max_cycle;Signal;HPM_P1;HPM_P2
2024/01/30 00:00:10;;;;;;;0.05;0.05;;;;;;;;;;1744747;28;20267;-56
2024/01/30 00:01:01;;;;;;;0.00;0.00;;;;;;;;;;1742622;28;20637;-57
2024/01/30 00:01:52;;;;;;;0.00;0.00;;;;;;;;;;1745423;28;20281;-57
2024/01/30 00:02:45;;;;;;;0.00;0.00;;;;;;;;;;1744161;28;20263;-58
2024/01/30 00:03:36;;;;;;;0.00;0.00;;;;;;;;;;1745308;28;20207;-57
2024/01/30 00:04:27;;;;;;;0.00;0.00;;;;;;;;;;1743620;28;20222;-57
2024/01/30 00:05:19;;;;;;;0.00;0.00;;;;;;;;;;1744760;28;20348;-58
2024/01/30 00:06:12;;;;;;;0.08;0.08;;;;;;;;;;1743240;28;20302;-57
2024/01/30 00:07:04;;;;;;;0.00;0.00;;;;;;;;;;1744680;28;20214;-56
2024/01/30 00:07:56;;;;;;;0.00;0.00;;;;;;;;;;1744933;28;20952;-57
2024/01/30 00:08:48;;;;;;;0.00;0.00;;;;;;;;;;1744599;28;20671;-57
2024/01/30 00:09:39;;;;;;;0.00;0.00;;;;;;;;;;1744436;28;20213;-58
2024/01/30 00:10:30;;;;;;;0.00;0.00;;;;;;;;;;1743614;28;20198;-57
2024/01/30 00:11:25;;;;;;;0.00;0.00;;;;;;;;;;1744106;28;20431;-58
2024/01/30 00:12:16;;;;;;;0.00;0.00;;;;;;;;;;1744673;28;20577;-57
2024/01/30 00:13:07;;;;;;;0.10;0.10;;;;;;;;;;1744119;28;20723;-57
2024/01/30 00:13:59;;;;;;;0.00;0.00;;;;;;;;;;1745116;28;20641;-57
2024/01/30 00:14:50;;;;;;;0.00;0.00;;;;;;;;;;1744359;28;20419;-58
2024/01/30 00:15:42;;;;;;;0.08;0.08;;;;;;;;;;1743779;28;20275;-57
2024/01/30 00:16:33;;;;;;;0.00;0.00;;;;;;;;;;1743412;28;20206;-58
2024/01/30 00:17:26;;;;;;;0.00;0.00;;;;;;;;;;1744878;28;20208;-57
2024/01/30 00:18:18;;;;;;;0.00;0.00;;;;;;;;;;1744131;28;20626;-57
2024/01/30 00:19:09;;;;;;;0.00;0.00;;;;;;;;;;1744833;28;20320;-57
2024/01/30 00:20:00;;;;;;;0.00;0.00;;;;;;;;;;1744758;28;20338;-58
2024/01/30 00:20:52;;;;;;;0.00;0.00;;;;;;;;;;1743753;28;20899;-57
2024/01/30 00:21:43;;;;;;;0.00;0.00;;;;;;;;;;1744286;28;20207;-57
2024/01/30 00:22:35;;;;;;;0.00;0.00;;;;;;;;;;1744776;28;20206;-59
2024/01/30 00:23:28;;;;;;;0.13;0.13;;;;;;;;;;1744637;28;20267;-60
2024/01/30 00:24:19;;;;;;;0.00;0.00;;;;;;;;;;1744055;28;20217;-57
2024/01/30 00:25:11;;;;;;;0.00;0.00;;;;;;;;;;1744570;28;20217;-57
2024/01/30 00:26:02;;;;;;;0.00;0.00;;;;;;;;;;1743771;28;20655;-58
2024/01/30 00:26:53;;;;;;;0.00;0.00;;;;;;;;;;1744650;28;20202;-57
2024/01/30 00:27:45;;;;;;;0.00;0.00;;;;;;;;;;1744320;28;20257;-58
2024/01/30 00:28:36;;;;;;;0.00;0.00;;;;;;;;;;1745078;28;20259;-57
2024/01/30 00:29:30;;;;;;;0.00;0.00;;;;;;;;;;1744716;28;20202;-57
2024/01/30 00:30:22;;;;;;;0.00;0.00;;;;;;;;;;1744983;28;20585;-58
2024/01/30 00:31:13;;;;;;;0.10;0.10;;;;;;;;;;1743341;28;20238;-59
2024/01/30 00:32:04;;;;;;;0.00;0.00;;;;;;;;;;1745301;28;20210;-58
2024/01/30 00:32:56;;;;;;;0.00;0.00;;;;;;;;;;1741155;28;20260;-57
2024/01/30 00:33:47;;;;;;;0.00;0.00;;;;;;;;;;1744844;28;20210;-57
2024/01/30 00:34:38;;;;;;;0.00;0.00;;;;;;;;;;1744857;28;20233;-58
2024/01/30 00:35:30;;;;;;;0.00;0.00;;;;;;;;;;1744066;28;20573;-59
2024/01/30 00:36:21;;;;;;;0.00;0.00;;;;;;;;;;1744512;28;20248;-58
2024/01/30 00:37:12;;;;;;;0.00;0.00;;;;;;;;;;1745226;28;20228;-58
2024/01/30 00:38:04;;;;;;;0.00;0.00;;;;;;;;;;1744990;28;20302;-57
2024/01/30 00:38:57;;;;;;;0.00;0.00;;;;;;;;;;1745647;28;20259;-57
2024/01/30 00:39:48;;;;;;;0.00;0.00;;;;;;;;;;1744999;28;20518;-58
2024/01/30 00:40:40;;;;;;;0.10;0.10;;;;;;;;;;1743854;28;20999;-58
2024/01/30 00:41:31;;;;;;;0.00;0.00;;;;;;;;;;1744686;28;20619;-58
2024/01/30 00:42:23;;;;;;;0.00;0.00;;;;;;;;;;1744894;28;20345;-58
2024/01/30 00:43:15;;;;;;;0.00;0.00;;;;;;;;;;1744356;28;20222;-58
2024/01/30 00:44:06;;;;;;;0.00;0.00;;;;;;;;;;1744784;28;20217;-57
2024/01/30 00:44:58;;;;;;;0.00;0.00;;;;;;;;;;1744853;28;20228;-59
2024/01/30 00:45:51;;;;;;;0.00;0.00;;;;;;;;;;1744084;28;20655;-58
2024/01/30 00:46:42;;;;;;;0.00;0.00;;;;;;;;;;1744459;28;20202;-58
2024/01/30 00:47:34;;;;;;;0.00;0.00;;;;;;;;;;1745044;28;20344;-59
2024/01/30 00:48:25;;;;;;;0.00;0.00;;;;;;;;;;1743919;28;20267;-59
2024/01/30 00:49:16;;;;;;;0.00;0.00;;;;;;;;;;1744521;28;20759;-58
2024/01/30 00:50:09;;;;;;;0.00;0.00;;;;;;;;;;1744619;28;20202;-58
2024/01/30 00:51:00;;;;;;;0.00;0.00;;;;;;;;;;1743347;28;20260;-58
2024/01/30 00:51:52;;;;;;;0.00;0.00;;;;;;;;;;1744791;28;20214;-58
2024/01/30 00:52:44;;;;;;;0.00;0.00;;;;;;;;;;1744305;28;20255;-57
2024/01/30 00:53:35;;;;;;;0.00;0.00;;;;;;;;;;1744937;28;20630;-59
2024/01/30 00:54:29;;;;;;;0.00;0.00;;;;;;;;;;1744115;28;20360;-58
2024/01/30 00:55:20;;;;;;;0.00;0.00;;;;;;;;;;1743568;28;20206;-59
2024/01/30 00:56:12;;;;;;;0.00;0.00;;;;;;;;;;1744183;28;20213;-58
2024/01/30 00:57:03;;;;;;;0.00;0.00;;;;;;;;;;1744965;28;20206;-58
2024/01/30 00:57:55;;;;;;;0.00;0.00;;;;;;;;;;1744154;28;21610;-59
2024/01/30 00:58:47;;;;;;;0.00;0.00;;;;;;;;;;1744557;28;20218;-58
2024/01/30 00:59:38;;;;;;;0.00;0.00;;;;;;;;;;1744464;28;20285;-58
2024/01/30 01:00:30;;;;;;;0.00;0.00;;;;;;;;;;1742587;28;20198;-58
2024/01/30 01:01:21;;;;;;;0.00;0.00;;;;;;;;;;1742531;28;20214;-58
2024/01/30 01:02:13;;;;;;;0.00;0.00;;;;;;;;;;1744593;28;20297;-59
2024/01/30 01:03:05;;;;;;;0.00;0.00;;;;;;;;;;1744139;28;20237;-58
2024/01/30 01:03:58;;;;;;;0.00;0.00;;;;;;;;;;1744557;28;20214;-58
2024/01/30 01:04:50;;;;;;;0.00;0.00;;;;;;;;;;1742886;28;20728;-58
2024/01/30 01:05:41;;;;;;;0.00;0.00;;;;;;;;;;1741269;28;20265;-58
2024/01/30 01:06:32;;;;;;;0.00;0.00;;;;;;;;;;1743112;28;20228;-58
2024/01/30 01:07:24;;;;;;;0.00;0.00;;;;;;;;;;1744571;28;20265;-58
2024/01/30 01:08:15;;;;;;;0.00;0.00;;;;;;;;;;1744240;28;20214;-58
2024/01/30 01:09:06;;;;;;;0.00;0.00;;;;;;;;;;1744951;28;20214;-58
2024/01/30 01:09:59;;;;;;;0.00;0.00;;;;;;;;;;1744537;28;20202;-58
2024/01/30 01:10:50;;;;;;;0.00;0.00;;;;;;;;;;1743603;28;20234;-59
2024/01/30 01:11:42;;;;;;;0.00;0.00;;;;;;;;;;1743809;28;20320;-58
2024/01/30 01:12:33;;;;;;;0.05;0.05;;;;;;;;;;1741277;28;20210;-58
2024/01/30 01:13:25;;;;;;;0.00;0.00;;;;;;;;;;1744156;28;20264;-58
2024/01/30 01:14:16;;;;;;;0.00;0.00;;;;;;;;;;1744118;28;20293;-58
2024/01/30 01:15:09;;;;;;;0.00;0.00;;;;;;;;;;1744900;28;20577;-58
2024/01/30 01:16:01;;;;;;;0.00;0.00;;;;;;;;;;1743399;28;20238;-59
2024/01/30 01:16:52;;;;;;;0.00;0.00;;;;;;;;;;1744622;28;20706;-59
2024/01/30 01:17:43;;;;;;;0.00;0.00;;;;;;;;;;1743693;28;20736;-58
2024/01/30 01:18:35;;;;;;;0.00;0.00;;;;;;;;;;1744638;28;20213;-58
2024/01/30 01:19:26;;;;;;;0.00;0.00;;;;;;;;;;1744291;28;20350;-58
2024/01/30 01:20:18;;;;;;;0.00;0.00;;;;;;;;;;1743483;28;20497;-58
2024/01/30 01:21:09;;;;;;;0.00;0.00;;;;;;;;;;1736731;28;20864;-58
2024/01/30 01:22:00;;;;;;;0.00;0.00;;;;;;;;;;1737957;28;20618;-58
2024/01/30 01:22:53;;;;;;;0.00;0.00;;;;;;;;;;1737184;28;20700;-58
2024/01/30 01:23:44;;;;;;;0.13;0.13;;;;;;;;;;1737329;28;20578;-58
2024/01/30 01:24:36;;;;;;;0.00;0.00;;;;;;;;;;1737279;28;20290;-58
2024/01/30 01:25:29;;;;;;;0.00;0.00;;;;;;;;;;1736434;28;20214;-60
2024/01/30 01:26:21;;;;;;;0.00;0.00;;;;;;;;;;1737126;28;20574;-58
2024/01/30 01:27:12;;;;;;;0.00;0.00;;;;;;;;;;1737800;28;20211;-58
2024/01/30 01:28:04;;;;;;;0.00;0.00;;;;;;;;;;1737579;28;20213;-59
2024/01/30 01:28:55;;;;;;;0.00;0.00;;;;;;;;;;1737742;28;20202;-59
2024/01/30 01:29:46;;;;;;;0.00;0.00;;;;;;;;;;1737210;28;20332;-58
2024/01/30 01:30:39;;;;;;;0.00;0.00;;;;;;;;;;1736397;28;20384;-59
2024/01/30 01:31:30;;;;;;;0.00;0.00;;;;;;;;;;1737837;28;20231;-59
2024/01/30 01:32:21;;;;;;;0.00;0.00;;;;;;;;;;1738222;28;20744;-59
2024/01/30 01:33:14;;;;;;;0.00;0.00;;;;;;;;;;1737647;28;20625;-59
2024/01/30 01:34:05;;;;;;;0.00;0.00;;;;;;;;;;1738523;28;20245;-59
2024/01/30 01:34:56;;;;;;;0.00;0.00;;;;;;;;;;1737124;28;20214;-58
2024/01/30 01:35:48;;;;;;;0.00;0.00;;;;;;;;;;1736848;28;20273;-58
2024/01/30 01:36:39;;;;;;;0.03;0.03;;;;;;;;;;1738173;28;20210;-59
2024/01/30 01:37:30;;;;;;;0.00;0.00;;;;;;;;;;1739245;28;20203;-58
2024/01/30 01:38:22;;;;;;;0.10;0.10;;;;;;;;;;1738279;28;20210;-59
2024/01/30 01:39:13;;;;;;;0.00;0.00;;;;;;;;;;1739040;28;20256;-58
2024/01/30 01:40:05;;;;;;;0.00;0.00;;;;;;;;;;1739130;28;20712;-59
2024/01/30 01:40:59;;;;;;;0.00;0.00;;;;;;;;;;1737138;28;20234;-60
2024/01/30 01:41:50;;;;;;;0.05;0.05;;;;;;;;;;1738936;28;20263;-58
2024/01/30 01:42:41;;;;;;;0.00;0.00;;;;;;;;;;1738280;28;20213;-58
2024/01/30 01:43:33;;;;;;;0.00;0.00;;;;;;;;;;1738648;28;20207;-59
2024/01/30 01:44:24;;;;;;;0.00;0.00;;;;;;;;;;1738255;28;20708;-58
2024/01/30 01:45:15;;;;;;;0.00;0.00;;;;;;;;;;1738041;28;20382;-58
2024/01/30 01:46:07;;;;;;;0.20;0.20;;;;;;;;;;1738236;28;20239;-58
2024/01/30 01:46:59;;;;;;;0.00;0.00;;;;;;;;;;1738633;28;20694;-59
2024/01/30 01:47:51;;;;;;;0.00;0.00;;;;;;;;;;1738088;28;20691;-58
2024/01/30 01:48:45;;;;;;;0.00;0.00;;;;;;;;;;1738871;28;20194;-60
2024/01/30 01:49:36;;;;;;;0.00;0.00;;;;;;;;;;1738682;28;20265;-58
2024/01/30 01:50:27;;;;;;;0.00;0.00;;;;;;;;;;1737685;28;20574;-58
2024/01/30 01:51:19;;;;;;;0.00;0.00;;;;;;;;;;1738224;28;20199;-58
2024/01/30 01:52:10;;;;;;;0.00;0.00;;;;;;;;;;1739381;28;20264;-59
2024/01/30 01:53:02;;;;;;;0.00;0.00;;;;;;;;;;1738640;28;20640;-58
2024/01/30 01:53:55;;;;;;;0.20;0.20;;;;;;;;;;1738799;28;20282;-58
2024/01/30 01:54:46;;;;;;;0.00;0.00;;;;;;;;;;1738513;28;20203;-58
2024/01/30 01:55:37;;;;;;;0.08;0.08;;;;;;;;;;1737624;28;20206;-59
2024/01/30 01:56:31;;;;;;;0.03;0.03;;;;;;;;;;1738276;28;20238;-59
2024/01/30 01:57:23;;;;;;;0.00;0.00;;;;;;;;;;1738812;28;20245;-58
2024/01/30 01:58:15;;;;;;;0.00;0.00;;;;;;;;;;1738277;28;20207;-59
2024/01/30 01:59:07;;;;;;;0.00;0.00;;;;;;;;;;1739347;28;20581;-59
2024/01/30 01:59:59;;;;;;;0.00;0.00;;;;;;;;;;1738434;28;20253;-58
2024/01/30 02:00:52;;;;;;;0.00;0.00;;;;;;;;;;1734926;28;20231;-59
2024/01/30 02:01:43;;;;;;;0.00;0.00;;;;;;;;;;1738308;28;20703;-58
2024/01/30 02:02:36;;;;;;;0.00;0.00;;;;;;;;;;1738861;28;20726;-58
2024/01/30 02:03:27;;;;;;;0.03;0.03;;;;;;;;;;1734998;28;20268;-58
2024/01/30 02:04:19;;;;;;;0.00;0.00;;;;;;;;;;1737152;28;20229;-58
2024/01/30 02:05:10;;;;;;;0.00;0.00;;;;;;;;;;1739064;28;20900;-58
2024/01/30 02:06:02;;;;;;;0.00;0.00;;;;;;;;;;1737514;28;20668;-59
2024/01/30 02:06:54;;;;;;;0.00;0.00;;;;;;;;;;1738658;28;20470;-58
2024/01/30 02:07:45;;;;;;;0.00;0.00;;;;;;;;;;1738244;28;20211;-58
2024/01/30 02:08:38;;;;;;;0.00;0.00;;;;;;;;;;1738806;28;20198;-58
2024/01/30 02:09:30;;;;;;;0.10;0.10;;;;;;;;;;1738203;28;20214;-58
2024/01/30 02:10:21;;;;;;;0.00;0.00;;;;;;;;;;1737778;28;20283;-59
2024/01/30 02:11:13;;;;;;;0.00;0.00;;;;;;;;;;1738805;28;20320;-58
2024/01/30 02:12:06;;;;;;;0.00;0.00;;;;;;;;;;1736681;28;20306;-58
2024/01/30 02:12:57;;;;;;;0.00;0.00;;;;;;;;;;1738090;28;20292;-58
2024/01/30 02:13:49;;;;;;;0.00;0.00;;;;;;;;;;1738404;28;20248;-58
2024/01/30 02:14:45;;;;;;;0.00;0.00;;;;;;;;;;1738239;28;20248;-58
2024/01/30 02:15:37;;;;;;;0.00;0.00;;;;;;;;;;1736957;28;20258;-58
2024/01/30 02:16:28;;;;;;;0.00;0.00;;;;;;;;;;1738267;28;20255;-59
2024/01/30 02:17:19;;;;;;;0.00;0.00;;;;;;;;;;1738857;28;20693;-58
2024/01/30 02:18:11;;;;;;;0.00;0.00;;;;;;;;;;1737969;28;20772;-58
2024/01/30 02:19:02;;;;;;;0.00;0.00;;;;;;;;;;1738832;28;20305;-58
2024/01/30 02:19:53;;;;;;;0.00;0.00;;;;;;;;;;1738117;28;20210;-59
2024/01/30 02:20:46;;;;;;;0.00;0.00;;;;;;;;;;1737594;28;20238;-59
2024/01/30 02:21:38;;;;;;;0.00;0.00;;;;;;;;;;1738417;28;20218;-58
2024/01/30 02:22:30;;;;;;;0.00;0.00;;;;;;;;;;1738664;28;20215;-58
2024/01/30 02:23:21;;;;;;;0.00;0.00;;;;;;;;;;1738312;28;20226;-58
2024/01/30 02:24:12;;;;;;;0.00;0.00;;;;;;;;;;1738958;28;20628;-58
2024/01/30 02:25:05;;;;;;;0.03;0.03;;;;;;;;;;1738588;28;20206;-58
2024/01/30 02:25:56;;;;;;;0.00;0.00;;;;;;;;;;1737574;28;20647;-59
2024/01/30 02:26:47;;;;;;;0.03;0.03;;;;;;;;;;1737962;28;20269;-58
2024/01/30 02:27:39;;;;;;;0.00;0.00;;;;;;;;;;1738445;28;20203;-58
2024/01/30 02:28:30;;;;;;;0.00;0.00;;;;;;;;;;1738490;28;20533;-58
2024/01/30 02:29:22;;;;;;;0.00;0.00;;;;;;;;;;1738290;28;20202;-57
2024/01/30 02:30:13;;;;;;;0.00;0.00;;;;;;;;;;1738879;28;20271;-58
2024/01/30 02:31:05;;;;;;;0.10;0.10;;;;;;;;;;1733524;28;20258;-58
2024/01/30 02:31:56;;;;;;;0.00;0.00;;;;;;;;;;1737714;28;20280;-59
2024/01/30 02:32:47;;;;;;;0.00;0.00;;;;;;;;;;1737875;28;20575;-58
2024/01/30 02:33:39;;;;;;;0.08;0.08;;;;;;;;;;1738891;28;20380;-59
2024/01/30 02:34:30;;;;;;;0.00;0.00;;;;;;;;;;1737896;28;20259;-59
2024/01/30 02:35:21;;;;;;;0.00;0.00;;;;;;;;;;1738121;28;20215;-58
2024/01/30 02:36:15;;;;;;;0.00;0.00;;;;;;;;;;1737955;28;20245;-58
2024/01/30 02:37:07;;;;;;;0.00;0.00;;;;;;;;;;1736694;28;20663;-59
2024/01/30 02:37:58;;;;;;;0.00;0.00;;;;;;;;;;1738458;28;20207;-59
2024/01/30 02:38:50;;;;;;;0.00;0.00;;;;;;;;;;1738572;28;20658;-59
2024/01/30 02:39:41;;;;;;;0.00;0.00;;;;;;;;;;1738245;28;20207;-59
2024/01/30 02:40:32;;;;;;;0.00;0.00;;;;;;;;;;1736080;28;20256;-61
2024/01/30 02:41:24;;;;;;;0.00;0.00;;;;;;;;;;1737938;28;20242;-58
2024/01/30 02:42:15;;;;;;;0.00;0.00;;;;;;;;;;1738512;28;20207;-58
2024/01/30 02:43:06;;;;;;;0.00;0.00;;;;;;;;;;1738273;28;20716;-59
2024/01/30 02:43:58;;;;;;;0.00;0.00;;;;;;;;;;1738500;28;20574;-58
2024/01/30 02:44:49;;;;;;;0.00;0.00;;;;;;;;;;1738179;28;20211;-59
2024/01/30 02:45:40;;;;;;;0.00;0.00;;;;;;;;;;1737484;28;20230;-58
2024/01/30 02:46:32;;;;;;;0.00;0.00;;;;;;;;;;1738196;28;20215;-58
2024/01/30 02:47:23;;;;;;;0.00;0.00;;;;;;;;;;1737952;28;20218;-59
2024/01/30 02:48:15;;;;;;;0.00;0.00;;;;;;;;;;1737580;28;20203;-60
2024/01/30 02:49:06;;;;;;;0.00;0.00;;;;;;;;;;1735539;28;20614;-58
2024/01/30 02:49:58;;;;;;;0.00;0.00;;;;;;;;;;1738037;28;20526;-58
2024/01/30 02:50:49;;;;;;;0.00;0.00;;;;;;;;;;1737605;28;20300;-60
2024/01/30 02:51:40;;;;;;;0.00;0.00;;;;;;;;;;1737972;28;20206;-59
2024/01/30 02:52:33;;;;;;;0.10;0.10;;;;;;;;;;1738810;28;20388;-59
2024/01/30 02:53:24;;;;;;;0.00;0.00;;;;;;;;;;1738015;28;20667;-59
2024/01/30 02:54:16;;;;;;;0.00;0.00;;;;;;;;;;1738316;28;20297;-56
2024/01/30 02:55:08;;;;;;;0.00;0.00;;;;;;;;;;1738823;28;20207;-59
2024/01/30 02:55:59;;;;;;;0.00;0.00;;;;;;;;;;1736799;28;20705;-58
2024/01/30 02:56:51;;;;;;;0.00;0.00;;;;;;;;;;1738568;28;20650;-58
2024/01/30 02:57:42;;;;;;;0.00;0.00;;;;;;;;;;1737956;28;20234;-59
2024/01/30 02:58:34;;;;;;;0.00;0.00;;;;;;;;;;1738334;28;20199;-58
2024/01/30 02:59:25;;;;;;;0.00;0.00;;;;;;;;;;1738080;28;20219;-59
2024/01/30 03:00:17;;;;;;;0.00;0.00;;;;;;;;;;1738301;28;20213;-59
2024/01/30 03:01:08;;;;;;;0.00;0.00;;;;;;;;;;1734772;28;20238;-59
2024/01/30 03:01:59;;;;;;;0.00;0.00;;;;;;;;;;1738284;28;20209;-59
2024/01/30 03:02:51;;;;;;;0.00;0.00;;;;;;;;;;1737839;28;20592;-59
2024/01/30 03:03:43;;;;;;;0.00;0.00;;;;;;;;;;1738313;28;20264;-60
2024/01/30 03:04:35;;;;;;;0.00;0.00;;;;;;;;;;1737342;28;20226;-60
2024/01/30 03:05:26;;;;;;;0.00;0.00;;;;;;;;;;1737420;28;20320;-59
2024/01/30 03:06:17;;;;;;;0.00;0.00;;;;;;;;;;1737846;28;20306;-57
2024/01/30 03:07:09;;;;;;;0.00;0.00;;;;;;;;;;1739032;28;20206;-59
2024/01/30 03:08:01;;;;;;;0.00;0.00;;;;;;;;;;1737943;28;20215;-59
2024/01/30 03:08:52;;;;;;;0.00;0.00;;;;;;;;;;1738483;28;20207;-59
2024/01/30 03:09:44;;;;;;;0.00;0.00;;;;;;;;;;1738114;28;20242;-58
2024/01/30 03:10:36;;;;;;;0.00;0.00;;;;;;;;;;1737169;28;20207;-59
2024/01/30 03:11:27;;;;;;;0.00;0.00;;;;;;;;;;1738044;28;20256;-59
2024/01/30 03:12:19;;;;;;;0.00;0.00;;;;;;;;;;1738066;28;20258;-58
2024/01/30 03:13:10;;;;;;;0.00;0.00;;;;;;;;;;1738285;28;20239;-59
2024/01/30 03:14:02;;;;;;;0.00;0.00;;;;;;;;;;1738187;28;20207;-58
2024/01/30 03:14:53;;;;;;;0.00;0.00;;;;;;;;;;1738118;28;20622;-59
2024/01/30 03:15:44;;;;;;;0.00;0.00;;;;;;;;;;1737485;28;20651;-59
2024/01/30 03:16:36;;;;;;;0.00;0.00;;;;;;;;;;1737915;28;20244;-59
2024/01/30 03:17:27;;;;;;;0.00;0.00;;;;;;;;;;1738522;28;20215;-59
2024/01/30 03:18:18;;;;;;;0.00;0.00;;;;;;;;;;1737537;28;20286;-57
2024/01/30 03:19:10;;;;;;;0.00;0.00;;;;;;;;;;1739361;28;20239;-58
2024/01/30 03:20:01;;;;;;;0.00;0.00;;;;;;;;;;1738209;28;20215;-59
2024/01/30 03:20:52;;;;;;;0.10;0.10;;;;;;;;;;1737597;28;20230;-58
2024/01/30 03:21:44;;;;;;;0.00;0.00;;;;;;;;;;1738506;28;20198;-58
2024/01/30 03:22:35;;;;;;;0.00;0.00;;;;;;;;;;1738378;28;20202;-57
2024/01/30 03:23:27;;;;;;;0.00;0.00;;;;;;;;;;1738653;28;20666;-59
2024/01/30 03:24:19;;;;;;;0.00;0.00;;;;;;;;;;1738394;28;20375;-57
2024/01/30 03:25:10;;;;;;;0.00;0.00;;;;;;;;;;1738178;28;20650;-59
2024/01/30 03:26:03;;;;;;;0.00;0.00;;;;;;;;;;1737480;28;20239;-58
2024/01/30 03:26:55;;;;;;;0.00;0.00;;;;;;;;;;1738451;28;20950;-59
2024/01/30 03:27:46;;;;;;;0.00;0.00;;;;;;;;;;1738238;28;20263;-58
2024/01/30 03:28:37;;;;;;;0.00;0.00;;;;;;;;;;1738998;28;20206;-58
2024/01/30 03:29:29;;;;;;;0.00;0.00;;;;;;;;;;1738474;28;20207;-58
2024/01/30 03:30:20;;;;;;;0.00;0.00;;;;;;;;;;1737838;28;20294;-58
2024/01/30 03:31:14;;;;;;;0.00;0.00;;;;;;;;;;1738753;28;20302;-58
2024/01/30 03:32:06;;;;;;;0.00;0.00;;;;;;;;;;1738831;28;20211;-58
2024/01/30 03:32:57;;;;;;;0.00;0.00;;;;;;;;;;1738118;28;20498;-59
2024/01/30 03:33:48;;;;;;;0.00;0.00;;;;;;;;;;1738665;28;20199;-58
2024/01/30 03:34:41;;;;;;;0.00;0.00;;;;;;;;;;1738490;28;20329;-58
2024/01/30 03:35:32;;;;;;;0.00;0.00;;;;;;;;;;1737173;28;20267;-59
2024/01/30 03:36:23;;;;;;;0.00;0.00;;;;;;;;;;1738449;28;20265;-59
2024/01/30 03:37:15;;;;;;;0.00;0.00;;;;;;;;;;1738659;28;20211;-58
2024/01/30 03:38:06;;;;;;;0.00;0.00;;;;;;;;;;1738196;28;20227;-58
2024/01/30 03:38:58;;;;;;;0.00;0.00;;;;;;;;;;1737934;28;20203;-58
2024/01/30 03:39:50;;;;;;;0.00;0.00;;;;;;;;;;1737546;28;20203;-58
2024/01/30 03:40:41;;;;;;;0.00;0.00;;;;;;;;;;1737124;28;20239;-58
2024/01/30 03:41:33;;;;;;;0.00;0.00;;;;;;;;;;1736677;28;20257;-58
2024/01/30 03:42:24;;;;;;;0.00;0.00;;;;;;;;;;1738764;28;20220;-58
2024/01/30 03:43:16;;;;;;;0.00;0.00;;;;;;;;;;1736155;28;20838;-59
2024/01/30 03:44:07;;;;;;;0.00;0.00;;;;;;;;;;1738401;28;20639;-59
2024/01/30 03:44:58;;;;;;;0.00;0.00;;;;;;;;;;1738123;28;20620;-58
2024/01/30 03:45:50;;;;;;;0.00;0.00;;;;;;;;;;1737419;28;20654;-58
2024/01/30 03:46:41;;;;;;;0.00;0.00;;;;;;;;;;1738031;28;20279;-58
2024/01/30 03:47:32;;;;;;;0.00;0.00;;;;;;;;;;1733369;28;20200;-58
2024/01/30 03:48:25;;;;;;;0.00;0.00;;;;;;;;;;1737633;28;20345;-58
2024/01/30 03:49:16;;;;;;;0.00;0.00;;;;;;;;;;1738516;28;20245;-58
2024/01/30 03:50:08;;;;;;;0.00;0.00;;;;;;;;;;1737701;28;20207;-58
2024/01/30 03:51:00;;;;;;;0.00;0.00;;;;;;;;;;1736934;28;20502;-57
2024/01/30 03:51:51;;;;;;;0.00;0.00;;;;;;;;;;1738027;28;20214;-59
2024/01/30 03:52:42;;;;;;;0.00;0.00;;;;;;;;;;1737871;28;20306;-58
2024/01/30 03:53:34;;;;;;;0.00;0.00;;;;;;;;;;1738224;28;20206;-58
2024/01/30 03:54:26;;;;;;;0.00;0.00;;;;;;;;;;1737532;28;20230;-58
2024/01/30 03:55:17;;;;;;;0.00;0.00;;;;;;;;;;1736739;28;20272;-58
2024/01/30 03:56:09;;;;;;;0.00;0.00;;;;;;;;;;1736494;28;20289;-58
2024/01/30 03:57:00;;;;;;;0.00;0.00;;;;;;;;;;1738185;28;20737;-58
2024/01/30 03:57:51;;;;;;;0.00;0.00;;;;;;;;;;1737661;28;20272;-58
2024/01/30 03:58:43;;;;;;;0.00;0.00;;;;;;;;;;1738305;28;20765;-58
2024/01/30 03:59:34;;;;;;;0.00;0.00;;;;;;;;;;1737849;28;20214;-58
2024/01/30 04:00:26;;;;;;;0.00;0.00;;;;;;;;;;1736329;28;20265;-58
2024/01/30 04:01:17;;;;;;;0.00;0.00;;;;;;;;;;1738037;28;20209;-58
2024/01/30 04:02:09;;;;;;;0.00;0.00;;;;;;;;;;1737989;28;20520;-58
2024/01/30 04:03:00;;;;;;;0.00;0.00;;;;;;;;;;1737451;28;20645;-58
2024/01/30 04:03:51;;;;;;;0.00;0.00;;;;;;;;;;1737994;28;20203;-58
2024/01/30 04:04:43;;;;;;;0.00;0.00;;;;;;;;;;1737124;28;20219;-58
2024/01/30 04:05:34;;;;;;;0.00;0.00;;;;;;;;;;1737381;28;20202;-58
2024/01/30 04:06:25;;;;;;;0.00;0.00;;;;;;;;;;1737749;28;20292;-57
2024/01/30 04:07:17;;;;;;;0.00;0.00;;;;;;;;;;1738757;28;20207;-58
2024/01/30 04:08:08;;;;;;;0.00;0.00;;;;;;;;;;1737953;28;20636;-59
2024/01/30 04:08:59;;;;;;;0.00;0.00;;;;;;;;;;1738006;28;20202;-58
2024/01/30 04:09:52;;;;;;;0.00;0.00;;;;;;;;;;1737914;28;20230;-58
2024/01/30 04:10:44;;;;;;;0.00;0.00;;;;;;;;;;1736989;28;20234;-58
2024/01/30 04:11:35;;;;;;;0.00;0.00;;;;;;;;;;1737816;28;20198;-58
2024/01/30 04:12:27;;;;;;;0.00;0.00;;;;;;;;;;1738095;28;20266;-58
2024/01/30 04:13:18;;;;;;;0.00;0.00;;;;;;;;;;1738182;28;20231;-58
2024/01/30 04:14:10;;;;;;;0.00;0.00;;;;;;;;;;1738223;28;20260;-58
2024/01/30 04:15:01;;;;;;;0.00;0.00;;;;;;;;;;1737497;28;20207;-58
2024/01/30 04:15:54;;;;;;;0.00;0.00;;;;;;;;;;1737305;28;20284;-58
2024/01/30 04:16:45;;;;;;;0.00;0.00;;;;;;;;;;1737395;28;20420;-59
2024/01/30 04:17:36;;;;;;;0.00;0.00;;;;;;;;;;1738306;28;20195;-59
2024/01/30 04:18:28;;;;;;;0.00;0.00;;;;;;;;;;1737757;28;20234;-59
2024/01/30 04:19:19;;;;;;;0.00;0.00;;;;;;;;;;1738154;28;20737;-59
2024/01/30 04:20:15;;;;;;;0.00;0.00;;;;;;;;;;1738011;28;20249;-58
2024/01/30 04:21:06;;;;;;;0.00;0.00;;;;;;;;;;1744200;28;20230;-59
2024/01/30 04:21:58;;;;;;;0.00;0.00;;;;;;;;;;1743257;28;20206;-58
2024/01/30 04:22:49;;;;;;;0.00;0.00;;;;;;;;;;1744480;28;20274;-58
2024/01/30 04:23:40;;;;;;;0.08;0.08;;;;;;;;;;1745180;28;20594;-58
2024/01/30 04:24:32;;;;;;;0.00;0.00;;;;;;;;;;1744573;28;20395;-60
2024/01/30 04:25:24;;;;;;;0.00;0.00;;;;;;;;;;1743663;28;20274;-58
2024/01/30 04:26:15;;;;;;;0.00;0.00;;;;;;;;;;1744888;28;20214;-58
2024/01/30 04:27:07;;;;;;;0.00;0.00;;;;;;;;;;1744890;28;20214;-59
2024/01/30 04:27:58;;;;;;;0.00;0.00;;;;;;;;;;1744136;28;20605;-59
2024/01/30 04:28:50;;;;;;;0.00;0.00;;;;;;;;;;1744516;28;20206;-60
2024/01/30 04:29:41;;;;;;;0.00;0.00;;;;;;;;;;1744503;28;20258;-61
2024/01/30 04:30:32;;;;;;;0.00;0.00;;;;;;;;;;1743891;28;20260;-59
2024/01/30 04:31:24;;;;;;;0.03;0.03;;;;;;;;;;1744475;28;20210;-58
2024/01/30 04:32:15;;;;;;;0.00;0.00;;;;;;;;;;1745206;28;20218;-59
2024/01/30 04:33:07;;;;;;;0.00;0.00;;;;;;;;;;1744154;28;20325;-59
2024/01/30 04:33:58;;;;;;;0.00;0.00;;;;;;;;;;1744612;28;20263;-60
2024/01/30 04:34:50;;;;;;;0.00;0.00;;;;;;;;;;1744513;28;20798;-59
2024/01/30 04:35:41;;;;;;;0.00;0.00;;;;;;;;;;1743619;28;20230;-59
2024/01/30 04:36:33;;;;;;;0.00;0.00;;;;;;;;;;1744540;28;20257;-60
2024/01/30 04:37:24;;;;;;;0.00;0.00;;;;;;;;;;1744526;28;20214;-59
2024/01/30 04:38:15;;;;;;;0.00;0.00;;;;;;;;;;1744746;28;20699;-60
2024/01/30 04:39:08;;;;;;;0.00;0.00;;;;;;;;;;1744959;28;20206;-60
2024/01/30 04:39:59;;;;;;;0.00;0.00;;;;;;;;;;1744098;28;20217;-60
2024/01/30 04:40:51;;;;;;;0.00;0.00;;;;;;;;;;1743541;28;20808;-60
2024/01/30 04:41:43;;;;;;;0.00;0.00;;;;;;;;;;1743929;28;20202;-60
2024/01/30 04:42:34;;;;;;;0.00;0.00;;;;;;;;;;1744815;28;20249;-61
2024/01/30 04:43:26;;;;;;;0.00;0.00;;;;;;;;;;1744260;28;20301;-59
2024/01/30 04:44:18;;;;;;;0.00;0.00;;;;;;;;;;1744449;28;20266;-59
2024/01/30 04:45:09;;;;;;;0.00;0.00;;;;;;;;;;1744547;28;20598;-59
2024/01/30 04:46:01;;;;;;;0.00;0.00;;;;;;;;;;1742971;28;20705;-59
2024/01/30 04:46:52;;;;;;;0.00;0.00;;;;;;;;;;1744755;28;20546;-59
2024/01/30 04:47:43;;;;;;;0.00;0.00;;;;;;;;;;1743892;28;20252;-59
2024/01/30 04:48:35;;;;;;;0.00;0.00;;;;;;;;;;1744368;28;20289;-60
2024/01/30 04:49:26;;;;;;;0.00;0.00;;;;;;;;;;1744223;28;20271;-60
2024/01/30 04:50:18;;;;;;;0.00;0.00;;;;;;;;;;1743995;28;20268;-60
2024/01/30 04:51:10;;;;;;;0.00;0.00;;;;;;;;;;1743635;28;20230;-60
2024/01/30 04:52:01;;;;;;;0.00;0.00;;;;;;;;;;1744723;28;20709;-61
2024/01/30 04:52:53;;;;;;;0.00;0.00;;;;;;;;;;1743965;28;20221;-60
2024/01/30 04:53:44;;;;;;;0.00;0.00;;;;;;;;;;1744584;28;20206;-59
2024/01/30 04:54:35;;;;;;;0.00;0.00;;;;;;;;;;1744037;28;20206;-60
2024/01/30 04:55:27;;;;;;;0.00;0.00;;;;;;;;;;1743394;28;20368;-59
2024/01/30 04:56:19;;;;;;;0.00;0.00;;;;;;;;;;1744136;28;20202;-60
2024/01/30 04:57:12;;;;;;;0.00;0.00;;;;;;;;;;1744742;28;20498;-60
2024/01/30 04:58:04;;;;;;;0.00;0.00;;;;;;;;;;1743987;28;20666;-60
2024/01/30 04:58:55;;;;;;;0.00;0.00;;;;;;;;;;1744474;28;20206;-60
2024/01/30 04:59:46;;;;;;;0.00;0.00;;;;;;;;;;1744255;28;20206;-60
2024/01/30 05:00:38;;;;;;;0.00;0.00;;;;;;;;;;1741284;28;20293;-59
2024/01/30 05:01:29;;;;;;;0.00;0.00;;;;;;;;;;1743663;28;20217;-59
2024/01/30 05:02:20;;;;;;;0.00;0.00;;;;;;;;;;1745007;28;20202;-60
2024/01/30 05:03:12;;;;;;;0.00;0.00;;;;;;;;;;1743912;28;20575;-60
2024/01/30 05:04:03;;;;;;;0.00;0.00;;;;;;;;;;1744586;28;20209;-59
2024/01/30 05:04:54;;;;;;;0.00;0.00;;;;;;;;;;1742608;28;20269;-60
2024/01/30 05:05:46;;;;;;;0.00;0.00;;;;;;;;;;1743608;28;20735;-59
2024/01/30 05:06:37;;;;;;;0.00;0.00;;;;;;;;;;1743964;28;20206;-60
2024/01/30 05:07:28;;;;;;;0.00;0.00;;;;;;;;;;1744747;28;20210;-59
2024/01/30 05:08:20;;;;;;;0.00;0.00;;;;;;;;;;1744593;28;20376;-59
2024/01/30 05:09:12;;;;;;;0.00;0.00;;;;;;;;;;1744484;28;20221;-59